sensor_id;sensor_type;location;lat;lon;timestamp;P1;durP1;ratioP1;P2;durP2;ratioP2
12451;SDS011;72521;48.924;12.204;2023-09-18T00:00:53;13.05;;;11.25;;
12451;SDS011;72521;48.924;12.204;2023-09-18T00:05:58;13.23;;;11.93;;
12451;SDS011;72521;48.924;12.204;2023-09-18T00:11:04;13.18;;;11.98;;
12451;SDS011;72521;48.924;12.204;2023-09-18T00:16:09;12.25;;;11.15;;
12451;SDS011;72521;48.924;12.204;2023-09-18T00:21:14;12.38;;;11.18;;
12451;SDS011;72521;48.924;12.204;2023-09-18T00:26:20;12.02;;;11.02;;
12451;SDS011;72521;48.924;12.204;2023-09-18T00:31:27;11.10;;;10.18;;
12451;SDS011;72521;48.924;12.204;2023-09-18T00:36:31;11.88;;;10.68;;
12451;SDS011;72521;48.924;12.204;2023-09-18T00:41:37;11.88;;;10.80;;
12451;SDS011;72521;48.924;12.204;2023-09-18T00:46:41;11.88;;;10.73;;
12451;SDS011;72521;48.924;12.204;2023-09-18T00:51:45;12.30;;;11.10;;
12451;SDS011;72521;48.924;12.204;2023-09-18T00:56:51;10.93;;;9.98;;
12451;SDS011;72521;48.924;12.204;2023-09-18T01:01:56;11.20;;;10.10;;
12451;SDS011;72521;48.924;12.204;2023-09-18T01:07:02;11.20;;;10.10;;
12451;SDS011;72521;48.924;12.204;2023-09-18T01:12:11;10.70;;;9.68;;
12451;SDS011;72521;48.924;12.204;2023-09-18T01:17:21;12.27;;;10.98;;
12451;SDS011;72521;48.924;12.204;2023-09-18T01:22:30;11.77;;;10.73;;
12451;SDS011;72521;48.924;12.204;2023-09-18T01:27:34;12.73;;;11.40;;
12451;SDS011;72521;48.924;12.204;2023-09-18T01:32:38;11.20;;;10.20;;
12451;SDS011;72521;48.924;12.204;2023-09-18T01:37:45;11.95;;;10.85;;
12451;SDS011;72521;48.924;12.204;2023-09-18T01:42:49;12.32;;;11.02;;
12451;SDS011;72521;48.924;12.204;2023-09-18T01:47:53;11.73;;;10.52;;
12451;SDS011;72521;48.924;12.204;2023-09-18T01:52:59;11.63;;;10.30;;
12451;SDS011;72521;48.924;12.204;2023-09-18T01:58:03;11.30;;;10.25;;
12451;SDS011;72521;48.924;12.204;2023-09-18T02:03:08;11.25;;;10.15;;
12451;SDS011;72521;48.924;12.204;2023-09-18T02:08:34;11.10;;;10.10;;
12451;SDS011;72521;48.924;12.204;2023-09-18T02:13:38;11.05;;;10.02;;
12451;SDS011;72521;48.924;12.204;2023-09-18T02:18:42;11.90;;;10.55;;
12451;SDS011;72521;48.924;12.204;2023-09-18T02:23:50;12.70;;;11.40;;
12451;SDS011;72521;48.924;12.204;2023-09-18T02:28:54;10.95;;;9.98;;
12451;SDS011;72521;48.924;12.204;2023-09-18T02:34:02;10.93;;;9.82;;
12451;SDS011;72521;48.924;12.204;2023-09-18T02:39:08;12.48;;;10.20;;
12451;SDS011;72521;48.924;12.204;2023-09-18T02:44:12;11.13;;;10.13;;
12451;SDS011;72521;48.924;12.204;2023-09-18T02:49:15;11.95;;;10.52;;
12451;SDS011;72521;48.924;12.204;2023-09-18T02:54:21;11.55;;;10.48;;
12451;SDS011;72521;48.924;12.204;2023-09-18T02:59:25;11.35;;;10.25;;
12451;SDS011;72521;48.924;12.204;2023-09-18T03:04:29;12.25;;;10.63;;
12451;SDS011;72521;48.924;12.204;2023-09-18T03:09:37;13.27;;;10.90;;
12451;SDS011;72521;48.924;12.204;2023-09-18T03:14:41;12.25;;;10.90;;
12451;SDS011;72521;48.924;12.204;2023-09-18T03:19:47;14.27;;;11.45;;
12451;SDS011;72521;48.924;12.204;2023-09-18T03:24:53;12.60;;;11.40;;
12451;SDS011;72521;48.924;12.204;2023-09-18T03:29:57;12.10;;;11.00;;
12451;SDS011;72521;48.924;12.204;2023-09-18T03:35:01;11.55;;;10.48;;
12451;SDS011;72521;48.924;12.204;2023-09-18T03:40:08;12.30;;;10.73;;
12451;SDS011;72521;48.924;12.204;2023-09-18T03:45:13;11.70;;;10.60;;
12451;SDS011;72521;48.924;12.204;2023-09-18T03:50:17;13.18;;;11.98;;
12451;SDS011;72521;48.924;12.204;2023-09-18T03:55:23;12.82;;;11.68;;
12451;SDS011;72521;48.924;12.204;2023-09-18T04:00:27;12.63;;;11.43;;
12451;SDS011;72521;48.924;12.204;2023-09-18T04:05:31;15.25;;;12.95;;
12451;SDS011;72521;48.924;12.204;2023-09-18T04:10:36;13.70;;;12.30;;
12451;SDS011;72521;48.924;12.204;2023-09-18T04:15:40;13.10;;;11.90;;
12451;SDS011;72521;48.924;12.204;2023-09-18T04:20:44;13.35;;;12.15;;
12451;SDS011;72521;48.924;12.204;2023-09-18T04:25:50;13.45;;;12.07;;
12451;SDS011;72521;48.924;12.204;2023-09-18T04:30:56;12.50;;;11.27;;
12451;SDS011;72521;48.924;12.204;2023-09-18T04:36:01;13.02;;;11.50;;
12451;SDS011;72521;48.924;12.204;2023-09-18T04:41:07;12.77;;;11.57;;
12451;SDS011;72521;48.924;12.204;2023-09-18T04:46:12;15.63;;;12.70;;
12451;SDS011;72521;48.924;12.204;2023-09-18T04:51:17;14.20;;;12.73;;
12451;SDS011;72521;48.924;12.204;2023-09-18T04:56:23;13.80;;;12.43;;
12451;SDS011;72521;48.924;12.204;2023-09-18T05:01:28;13.70;;;12.23;;
12451;SDS011;72521;48.924;12.204;2023-09-18T05:06:34;12.90;;;11.40;;
12451;SDS011;72521;48.924;12.204;2023-09-18T05:11:41;12.68;;;11.38;;
12451;SDS011;72521;48.924;12.204;2023-09-18T05:16:45;11.23;;;10.07;;
12451;SDS011;72521;48.924;12.204;2023-09-18T05:21:50;11.52;;;10.30;;
12451;SDS011;72521;48.924;12.204;2023-09-18T05:26:55;11.40;;;10.40;;
12451;SDS011;72521;48.924;12.204;2023-09-18T05:31:59;9.93;;;8.95;;
12451;SDS011;72521;48.924;12.204;2023-09-18T05:37:03;10.18;;;9.27;;
12451;SDS011;72521;48.924;12.204;2023-09-18T05:42:09;9.27;;;8.43;;
12451;SDS011;72521;48.924;12.204;2023-09-18T05:47:15;10.90;;;8.32;;
12451;SDS011;72521;48.924;12.204;2023-09-18T05:52:19;9.27;;;7.90;;
12451;SDS011;72521;48.924;12.204;2023-09-18T05:57:26;8.30;;;7.50;;
12451;SDS011;72521;48.924;12.204;2023-09-18T06:02:31;8.40;;;7.55;;
12451;SDS011;72521;48.924;12.204;2023-09-18T06:07:35;7.80;;;7.00;;
12451;SDS011;72521;48.924;12.204;2023-09-18T06:12:41;7.47;;;6.63;;
12451;SDS011;72521;48.924;12.204;2023-09-18T06:17:45;8.07;;;7.38;;
12451;SDS011;72521;48.924;12.204;2023-09-18T06:22:49;8.77;;;7.68;;
12451;SDS011;72521;48.924;12.204;2023-09-18T06:27:55;6.95;;;6.25;;
12451;SDS011;72521;48.924;12.204;2023-09-18T06:33:00;8.30;;;6.82;;
12451;SDS011;72521;48.924;12.204;2023-09-18T06:38:05;7.43;;;6.25;;
12451;SDS011;72521;48.924;12.204;2023-09-18T06:43:13;6.47;;;5.38;;
12451;SDS011;72521;48.924;12.204;2023-09-18T06:48:17;8.07;;;4.80;;
12451;SDS011;72521;48.924;12.204;2023-09-18T06:53:21;5.85;;;4.55;;
12451;SDS011;72521;48.924;12.204;2023-09-18T06:58:29;5.20;;;4.75;;
12451;SDS011;72521;48.924;12.204;2023-09-18T07:03:34;4.75;;;4.28;;
12451;SDS011;72521;48.924;12.204;2023-09-18T07:08:39;5.10;;;4.70;;
12451;SDS011;72521;48.924;12.204;2023-09-18T07:13:44;4.53;;;4.10;;
12451;SDS011;72521;48.924;12.204;2023-09-18T07:18:49;5.20;;;4.70;;
12451;SDS011;72521;48.924;12.204;2023-09-18T07:23:53;4.43;;;4.03;;
12451;SDS011;72521;48.924;12.204;2023-09-18T07:28:59;5.18;;;4.70;;
12451;SDS011;72521;48.924;12.204;2023-09-18T07:34:03;6.60;;;4.85;;
12451;SDS011;72521;48.924;12.204;2023-09-18T07:39:08;4.75;;;4.20;;
12451;SDS011;72521;48.924;12.204;2023-09-18T07:44:17;4.25;;;3.95;;
12451;SDS011;72521;48.924;12.204;2023-09-18T07:49:23;4.85;;;4.38;;
12451;SDS011;72521;48.924;12.204;2023-09-18T07:54:27;5.20;;;4.05;;
12451;SDS011;72521;48.924;12.204;2023-09-18T07:59:32;4.25;;;3.80;;
12451;SDS011;72521;48.924;12.204;2023-09-18T08:04:36;4.13;;;3.83;;
12451;SDS011;72521;48.924;12.204;2023-09-18T08:09:41;3.90;;;3.50;;
12451;SDS011;72521;48.924;12.204;2023-09-18T08:14:47;4.50;;;3.97;;
12451;SDS011;72521;48.924;12.204;2023-09-18T08:19:52;3.97;;;3.65;;
12451;SDS011;72521;48.924;12.204;2023-09-18T08:24:56;7.25;;;3.75;;
12451;SDS011;72521;48.924;12.204;2023-09-18T08:30:02;4.10;;;3.65;;
12451;SDS011;72521;48.924;12.204;2023-09-18T08:35:07;4.20;;;3.47;;
12451;SDS011;72521;48.924;12.204;2023-09-18T08:40:13;6.43;;;4.15;;
12451;SDS011;72521;48.924;12.204;2023-09-18T08:45:21;4.90;;;3.60;;
12451;SDS011;72521;48.924;12.204;2023-09-18T08:50:30;4.10;;;3.78;;
12451;SDS011;72521;48.924;12.204;2023-09-18T08:55:36;3.35;;;3.10;;
12451;SDS011;72521;48.924;12.204;2023-09-18T09:00:42;3.30;;;2.92;;
12451;SDS011;72521;48.924;12.204;2023-09-18T09:05:46;5.00;;;3.30;;
12451;SDS011;72521;48.924;12.204;2023-09-18T09:10:50;4.18;;;3.60;;
12451;SDS011;72521;48.924;12.204;2023-09-18T09:15:56;6.22;;;3.90;;
12451;SDS011;72521;48.924;12.204;2023-09-18T09:21:03;4.05;;;3.75;;
12451;SDS011;72521;48.924;12.204;2023-09-18T09:26:14;6.80;;;4.00;;
12451;SDS011;72521;48.924;12.204;2023-09-18T09:31:25;4.10;;;3.70;;
12451;SDS011;72521;48.924;12.204;2023-09-18T09:36:51;3.88;;;3.40;;
12451;SDS011;72521;48.924;12.204;2023-09-18T09:42:02;4.10;;;3.70;;
12451;SDS011;72521;48.924;12.204;2023-09-18T09:47:23;5.35;;;3.85;;
12451;SDS011;72521;48.924;12.204;2023-09-18T09:52:31;8.43;;;3.33;;
12451;SDS011;72521;48.924;12.204;2023-09-18T09:58:07;6.95;;;3.70;;
12451;SDS011;72521;48.924;12.204;2023-09-18T10:03:18;4.80;;;3.30;;
12451;SDS011;72521;48.924;12.204;2023-09-18T10:08:24;10.02;;;4.13;;
12451;SDS011;72521;48.924;12.204;2023-09-18T10:13:33;9.50;;;3.88;;
12451;SDS011;72521;48.924;12.204;2023-09-18T10:18:53;5.53;;;3.38;;
12451;SDS011;72521;48.924;12.204;2023-09-18T10:24:08;10.57;;;3.67;;
12451;SDS011;72521;48.924;12.204;2023-09-18T10:29:21;6.40;;;3.75;;
12451;SDS011;72521;48.924;12.204;2023-09-18T10:34:29;8.55;;;3.47;;
12451;SDS011;72521;48.924;12.204;2023-09-18T10:39:36;5.10;;;3.30;;
12451;SDS011;72521;48.924;12.204;2023-09-18T10:44:42;5.40;;;3.67;;
12451;SDS011;72521;48.924;12.204;2023-09-18T10:49:48;12.05;;;3.80;;
12451;SDS011;72521;48.924;12.204;2023-09-18T10:54:52;8.43;;;3.80;;
12451;SDS011;72521;48.924;12.204;2023-09-18T10:59:56;8.45;;;3.75;;
12451;SDS011;72521;48.924;12.204;2023-09-18T11:05:04;10.05;;;3.83;;
12451;SDS011;72521;48.924;12.204;2023-09-18T11:15:31;7.68;;;3.60;;
12451;SDS011;72521;48.924;12.204;2023-09-18T11:20:36;10.23;;;3.55;;
12451;SDS011;72521;48.924;12.204;2023-09-18T11:25:42;6.97;;;3.50;;
12451;SDS011;72521;48.924;12.204;2023-09-18T11:30:48;7.05;;;3.45;;
12451;SDS011;72521;48.924;12.204;2023-09-18T11:36:06;8.05;;;3.75;;
12451;SDS011;72521;48.924;12.204;2023-09-18T11:41:21;6.30;;;3.78;;
12451;SDS011;72521;48.924;12.204;2023-09-18T11:46:27;5.28;;;4.65;;
12451;SDS011;72521;48.924;12.204;2023-09-18T11:51:33;5.45;;;4.47;;
12451;SDS011;72521;48.924;12.204;2023-09-18T11:56:39;9.15;;;4.45;;
12451;SDS011;72521;48.924;12.204;2023-09-18T12:01:43;6.75;;;4.15;;
12451;SDS011;72521;48.924;12.204;2023-09-18T12:06:56;8.05;;;4.00;;
12451;SDS011;72521;48.924;12.204;2023-09-18T12:12:04;10.07;;;4.03;;
12451;SDS011;72521;48.924;12.204;2023-09-18T12:17:13;7.00;;;3.70;;
12451;SDS011;72521;48.924;12.204;2023-09-18T12:22:23;6.68;;;3.40;;
12451;SDS011;72521;48.924;12.204;2023-09-18T12:27:29;8.52;;;3.30;;
12451;SDS011;72521;48.924;12.204;2023-09-18T12:32:35;7.32;;;2.70;;
12451;SDS011;72521;48.924;12.204;2023-09-18T12:37:42;2.75;;;0.65;;
12451;SDS011;72521;48.924;12.204;2023-09-18T12:42:46;4.03;;;1.00;;
12451;SDS011;72521;48.924;12.204;2023-09-18T12:47:51;2.88;;;1.05;;
12451;SDS011;72521;48.924;12.204;2023-09-18T12:53:09;4.50;;;1.05;;
12451;SDS011;72521;48.924;12.204;2023-09-18T12:58:18;3.55;;;1.25;;
12451;SDS011;72521;48.924;12.204;2023-09-18T13:03:22;2.97;;;0.95;;
12451;SDS011;72521;48.924;12.204;2023-09-18T13:08:28;2.92;;;1.20;;
12451;SDS011;72521;48.924;12.204;2023-09-18T13:13:33;4.65;;;1.10;;
12451;SDS011;72521;48.924;12.204;2023-09-18T13:18:37;2.50;;;0.70;;
12451;SDS011;72521;48.924;12.204;2023-09-18T13:23:44;1.02;;;0.50;;
12451;SDS011;72521;48.924;12.204;2023-09-18T13:28:49;0.63;;;0.60;;
12451;SDS011;72521;48.924;12.204;2023-09-18T13:33:54;2.58;;;0.60;;
12451;SDS011;72521;48.924;12.204;2023-09-18T13:39:02;2.20;;;0.70;;
12451;SDS011;72521;48.924;12.204;2023-09-18T13:44:07;2.95;;;1.15;;
12451;SDS011;72521;48.924;12.204;2023-09-18T13:49:12;1.00;;;0.55;;
12451;SDS011;72521;48.924;12.204;2023-09-18T13:54:18;1.25;;;0.50;;
12451;SDS011;72521;48.924;12.204;2023-09-18T13:59:23;2.42;;;0.70;;
12451;SDS011;72521;48.924;12.204;2023-09-18T14:04:28;2.97;;;0.45;;
12451;SDS011;72521;48.924;12.204;2023-09-18T14:09:33;4.35;;;0.65;;
12451;SDS011;72521;48.924;12.204;2023-09-18T14:14:38;3.03;;;0.65;;
12451;SDS011;72521;48.924;12.204;2023-09-18T14:19:42;1.83;;;0.70;;
12451;SDS011;72521;48.924;12.204;2023-09-18T14:24:49;1.17;;;0.93;;
12451;SDS011;72521;48.924;12.204;2023-09-18T14:29:53;2.55;;;0.70;;
12451;SDS011;72521;48.924;12.204;2023-09-18T14:34:58;3.60;;;0.70;;
12451;SDS011;72521;48.924;12.204;2023-09-18T14:40:06;6.78;;;0.88;;
12451;SDS011;72521;48.924;12.204;2023-09-18T14:45:15;1.73;;;0.85;;
12451;SDS011;72521;48.924;12.204;2023-09-18T14:50:19;0.70;;;0.60;;
12451;SDS011;72521;48.924;12.204;2023-09-18T14:55:25;2.30;;;0.80;;
12451;SDS011;72521;48.924;12.204;2023-09-18T15:00:31;1.10;;;0.80;;
12451;SDS011;72521;48.924;12.204;2023-09-18T15:05:37;0.98;;;0.60;;
12451;SDS011;72521;48.924;12.204;2023-09-18T15:10:44;2.25;;;0.70;;
12451;SDS011;72521;48.924;12.204;2023-09-18T15:15:53;2.03;;;0.90;;
12451;SDS011;72521;48.924;12.204;2023-09-18T15:20:58;0.70;;;0.60;;
12451;SDS011;72521;48.924;12.204;2023-09-18T15:26:04;3.60;;;1.23;;
12451;SDS011;72521;48.924;12.204;2023-09-18T15:31:08;1.10;;;0.80;;
12451;SDS011;72521;48.924;12.204;2023-09-18T15:36:12;1.17;;;0.60;;
12451;SDS011;72521;48.924;12.204;2023-09-18T15:41:18;1.98;;;1.30;;
12451;SDS011;72521;48.924;12.204;2023-09-18T15:46:22;3.33;;;2.47;;
12451;SDS011;72521;48.924;12.204;2023-09-18T15:51:27;1.67;;;0.77;;
12451;SDS011;72521;48.924;12.204;2023-09-18T15:56:33;2.75;;;1.00;;
12451;SDS011;72521;48.924;12.204;2023-09-18T16:01:38;1.80;;;0.80;;
12451;SDS011;72521;48.924;12.204;2023-09-18T16:06:43;2.15;;;1.15;;
12451;SDS011;72521;48.924;12.204;2023-09-18T16:11:49;1.67;;;0.70;;
12451;SDS011;72521;48.924;12.204;2023-09-18T16:16:53;2.15;;;0.80;;
12451;SDS011;72521;48.924;12.204;2023-09-18T16:21:57;1.48;;;1.00;;
12451;SDS011;72521;48.924;12.204;2023-09-18T16:27:03;1.67;;;0.98;;
12451;SDS011;72521;48.924;12.204;2023-09-18T16:32:09;1.67;;;1.08;;
12451;SDS011;72521;48.924;12.204;2023-09-18T16:37:14;1.27;;;0.80;;
12451;SDS011;72521;48.924;12.204;2023-09-18T16:42:20;2.20;;;0.80;;
12451;SDS011;72521;48.924;12.204;2023-09-18T16:47:24;4.38;;;1.10;;
12451;SDS011;72521;48.924;12.204;2023-09-18T16:52:31;2.50;;;1.23;;
12451;SDS011;72521;48.924;12.204;2023-09-18T16:57:39;1.73;;;1.20;;
12451;SDS011;72521;48.924;12.204;2023-09-18T17:02:44;3.67;;;2.22;;
12451;SDS011;72521;48.924;12.204;2023-09-18T17:07:50;3.38;;;1.45;;
12451;SDS011;72521;48.924;12.204;2023-09-18T17:12:57;4.50;;;1.60;;
12451;SDS011;72521;48.924;12.204;2023-09-18T17:18:04;3.47;;;1.73;;
12451;SDS011;72521;48.924;12.204;2023-09-18T17:23:09;3.97;;;1.70;;
12451;SDS011;72521;48.924;12.204;2023-09-18T17:28:16;3.10;;;1.73;;
12451;SDS011;72521;48.924;12.204;2023-09-18T17:33:21;2.83;;;1.83;;
12451;SDS011;72521;48.924;12.204;2023-09-18T17:38:26;3.00;;;1.63;;
12451;SDS011;72521;48.924;12.204;2023-09-18T17:43:32;3.08;;;2.20;;
12451;SDS011;72521;48.924;12.204;2023-09-18T17:48:39;3.45;;;2.25;;
12451;SDS011;72521;48.924;12.204;2023-09-18T17:53:44;3.63;;;2.80;;
12451;SDS011;72521;48.924;12.204;2023-09-18T17:58:50;4.18;;;2.83;;
12451;SDS011;72521;48.924;12.204;2023-09-18T18:03:54;4.72;;;2.75;;
12451;SDS011;72521;48.924;12.204;2023-09-18T18:09:00;3.75;;;2.90;;
12451;SDS011;72521;48.924;12.204;2023-09-18T18:14:08;3.45;;;2.67;;
12451;SDS011;72521;48.924;12.204;2023-09-18T18:19:12;4.97;;;2.33;;
12451;SDS011;72521;48.924;12.204;2023-09-18T18:24:22;2.83;;;2.30;;
12451;SDS011;72521;48.924;12.204;2023-09-18T18:29:28;2.65;;;2.10;;
12451;SDS011;72521;48.924;12.204;2023-09-18T18:34:32;3.17;;;2.40;;
12451;SDS011;72521;48.924;12.204;2023-09-18T18:39:37;2.83;;;2.22;;
12451;SDS011;72521;48.924;12.204;2023-09-18T18:44:42;3.58;;;2.30;;
12451;SDS011;72521;48.924;12.204;2023-09-18T18:49:48;4.00;;;2.28;;
12451;SDS011;72521;48.924;12.204;2023-09-18T18:54:52;3.75;;;2.30;;
12451;SDS011;72521;48.924;12.204;2023-09-18T18:59:59;3.30;;;2.50;;
12451;SDS011;72521;48.924;12.204;2023-09-18T19:05:03;3.75;;;2.20;;
12451;SDS011;72521;48.924;12.204;2023-09-18T19:10:12;4.32;;;2.42;;
12451;SDS011;72521;48.924;12.204;2023-09-18T19:15:19;3.53;;;2.72;;
12451;SDS011;72521;48.924;12.204;2023-09-18T19:20:26;5.22;;;2.53;;
12451;SDS011;72521;48.924;12.204;2023-09-18T19:25:31;4.40;;;2.53;;
12451;SDS011;72521;48.924;12.204;2023-09-18T19:30:38;6.72;;;3.00;;
12451;SDS011;72521;48.924;12.204;2023-09-18T19:35:48;5.85;;;3.20;;
12451;SDS011;72521;48.924;12.204;2023-09-18T19:40:53;7.47;;;3.17;;
12451;SDS011;72521;48.924;12.204;2023-09-18T19:46:15;5.03;;;3.80;;
12451;SDS011;72521;48.924;12.204;2023-09-18T19:51:23;4.03;;;3.28;;
12451;SDS011;72521;48.924;12.204;2023-09-18T19:56:28;3.53;;;3.20;;
12451;SDS011;72521;48.924;12.204;2023-09-18T20:01:41;4.45;;;3.28;;
12451;SDS011;72521;48.924;12.204;2023-09-18T20:06:59;4.60;;;3.22;;
12451;SDS011;72521;48.924;12.204;2023-09-18T20:12:06;3.72;;;2.97;;
12451;SDS011;72521;48.924;12.204;2023-09-18T20:17:20;3.75;;;3.10;;
12451;SDS011;72521;48.924;12.204;2023-09-18T20:22:24;5.60;;;3.50;;
12451;SDS011;72521;48.924;12.204;2023-09-18T20:27:31;5.25;;;3.20;;
12451;SDS011;72521;48.924;12.204;2023-09-18T20:32:38;6.10;;;3.83;;
12451;SDS011;72521;48.924;12.204;2023-09-18T20:37:43;4.80;;;3.28;;
12451;SDS011;72521;48.924;12.204;2023-09-18T20:42:47;4.60;;;3.55;;
12451;SDS011;72521;48.924;12.204;2023-09-18T20:47:53;4.03;;;3.50;;
12451;SDS011;72521;48.924;12.204;2023-09-18T20:52:57;4.38;;;3.10;;
12451;SDS011;72521;48.924;12.204;2023-09-18T20:58:01;8.13;;;3.40;;
12451;SDS011;72521;48.924;12.204;2023-09-18T21:03:07;5.72;;;3.28;;
12451;SDS011;72521;48.924;12.204;2023-09-18T21:08:12;6.82;;;3.47;;
12451;SDS011;72521;48.924;12.204;2023-09-18T21:13:16;5.55;;;3.63;;
12451;SDS011;72521;48.924;12.204;2023-09-18T21:18:22;6.60;;;3.70;;
12451;SDS011;72521;48.924;12.204;2023-09-18T21:23:26;3.92;;;3.53;;
12451;SDS011;72521;48.924;12.204;2023-09-18T21:28:30;4.53;;;3.55;;
12451;SDS011;72521;48.924;12.204;2023-09-18T21:33:35;5.90;;;3.33;;
12451;SDS011;72521;48.924;12.204;2023-09-18T21:38:41;6.13;;;3.67;;
12451;SDS011;72521;48.924;12.204;2023-09-18T21:43:45;4.57;;;3.00;;
12451;SDS011;72521;48.924;12.204;2023-09-18T21:48:53;6.90;;;3.38;;
12451;SDS011;72521;48.924;12.204;2023-09-18T21:53:57;5.38;;;3.08;;
12451;SDS011;72521;48.924;12.204;2023-09-18T21:59:01;6.22;;;3.33;;
12451;SDS011;72521;48.924;12.204;2023-09-18T22:04:09;5.97;;;3.35;;
12451;SDS011;72521;48.924;12.204;2023-09-18T22:09:25;8.13;;;3.90;;
12451;SDS011;72521;48.924;12.204;2023-09-18T22:14:29;4.70;;;4.15;;
12451;SDS011;72521;48.924;12.204;2023-09-18T22:19:34;7.80;;;4.40;;
12451;SDS011;72521;48.924;12.204;2023-09-18T22:24:38;6.30;;;4.15;;
12451;SDS011;72521;48.924;12.204;2023-09-18T22:29:42;6.05;;;4.15;;
12451;SDS011;72521;48.924;12.204;2023-09-18T22:34:48;7.57;;;3.95;;
12451;SDS011;72521;48.924;12.204;2023-09-18T22:57:11;7.15;;;3.88;;
12451;SDS011;72521;48.924;12.204;2023-09-18T23:02:16;6.15;;;4.13;;
12451;SDS011;72521;48.924;12.204;2023-09-18T23:07:22;5.82;;;3.83;;
12451;SDS011;72521;48.924;12.204;2023-09-18T23:12:31;5.95;;;3.47;;
12451;SDS011;72521;48.924;12.204;2023-09-18T23:17:36;3.92;;;3.30;;
12451;SDS011;72521;48.924;12.204;2023-09-18T23:22:41;6.60;;;3.63;;
12451;SDS011;72521;48.924;12.204;2023-09-18T23:27:47;5.63;;;3.60;;
12451;SDS011;72521;48.924;12.204;2023-09-18T23:32:53;7.32;;;3.95;;
12451;SDS011;72521;48.924;12.204;2023-09-18T23:38:01;9.27;;;3.90;;
12451;SDS011;72521;48.924;12.204;2023-09-18T23:43:08;9.90;;;4.95;;
12451;SDS011;72521;48.924;12.204;2023-09-18T23:48:13;9.45;;;5.50;;
12451;SDS011;72521;48.924;12.204;2023-09-18T23:53:20;8.13;;;4.60;;
12451;SDS011;72521;48.924;12.204;2023-09-18T23:58:28;8.10;;;4.65;;
